Time;durP1;ratioP1;P1;durP2;ratioP2;P2;SDS_P1;SDS_P2;PMS_P1;PMS_P2;Temp;Humidity;BMP_temperature;BMP_pressure;BME280_temperature;BME280_humidity;BME280_pressure;Samples;Min_cycle;Max_cycle;Signal;HPM_P1;HPM_P2
2023/07/26 00:00:50;;;;;;;0.93;0.52;;;24.50;42.40;;;;;;4991732;28;20030;-60
2023/07/26 00:03:23;;;;;;;0.52;0.30;;;24.50;42.40;;;;;;4973082;28;20140;-62
2023/07/26 00:05:51;;;;;;;0.90;0.50;;;24.50;42.50;;;;;;4987067;28;20088;-60
2023/07/26 00:08:20;;;;;;;1.17;0.52;;;24.50;42.50;;;;;;4991088;28;20030;-59
2023/07/26 00:10:49;;;;;;;0.98;0.60;;;24.50;42.50;;;;;;4991896;28;20114;-60
2023/07/26 00:13:17;;;;;;;0.65;0.43;;;24.50;42.60;;;;;;4991173;28;20123;-61
2023/07/26 00:15:48;;;;;;;0.55;0.47;;;24.50;42.60;;;;;;4989931;28;20044;-62
2023/07/26 00:18:16;;;;;;;0.70;0.50;;;24.50;42.70;;;;;;4988931;28;20477;-57
2023/07/26 00:20:44;;;;;;;0.55;0.40;;;24.40;42.70;;;;;;4992351;28;20164;-60
2023/07/26 00:23:12;;;;;;;0.88;0.50;;;24.40;43.30;;;;;;4991528;28;20038;-61
2023/07/26 00:25:40;;;;;;;0.70;0.50;;;24.40;42.80;;;;;;4991094;28;20061;-59
2023/07/26 00:28:08;;;;;;;1.63;0.60;;;24.40;42.80;;;;;;4992803;28;20056;-62
2023/07/26 00:30:36;;;;;;;0.90;0.52;;;24.40;42.90;;;;;;4991355;28;20126;-59
2023/07/26 00:33:04;;;;;;;1.08;0.73;;;24.40;42.90;;;;;;4991881;28;20039;-61
2023/07/26 00:35:39;;;;;;;1.08;0.40;;;24.40;42.90;;;;;;4991832;28;20065;-60
2023/07/26 00:38:07;;;;;;;1.48;0.50;;;24.40;43.00;;;;;;4992529;28;20026;-62
2023/07/26 00:40:37;;;;;;;0.80;0.50;;;24.40;43.00;;;;;;4992366;28;20105;-62
2023/07/26 00:43:07;;;;;;;1.02;0.60;;;24.40;43.10;;;;;;4990992;28;20452;-62
2023/07/26 00:45:38;;;;;;;1.15;0.60;;;24.40;43.10;;;;;;4990574;28;20045;-60
2023/07/26 00:48:04;;;;;;;0.63;0.50;;;24.40;43.10;;;;;;4990694;28;20077;-61
2023/07/26 00:50:31;;;;;;;2.08;0.60;;;24.40;43.20;;;;;;4970916;28;20039;-61
2023/07/26 00:52:57;;;;;;;1.33;0.57;;;24.40;43.20;;;;;;4982918;28;20038;-60
2023/07/26 00:55:23;;;;;;;1.50;0.73;;;24.40;43.30;;;;;;4992214;28;20298;-62
2023/07/26 00:57:50;;;;;;;0.65;0.50;;;24.40;43.30;;;;;;5002244;28;20045;-60
2023/07/26 01:00:18;;;;;;;0.93;0.40;;;24.30;43.90;;;;;;4990249;28;20033;-61
2023/07/26 01:02:44;;;;;;;0.70;0.50;;;24.30;43.30;;;;;;4990060;28;20065;-62
2023/07/26 01:05:11;;;;;;;1.15;0.60;;;24.30;43.30;;;;;;4990309;28;20042;-60
2023/07/26 01:08:16;;;;;;;0.80;0.50;;;24.30;43.40;;;;;;4971481;28;20113;-62
2023/07/26 01:10:48;;;;;;;;;;;24.30;43.30;;;;;;4988847;28;20397;-60
2023/07/26 01:13:31;;;;;;;0.82;0.35;;;24.30;43.40;;;;;;4992964;28;19978;-61
2023/07/26 01:15:59;;;;;;;0.50;0.50;;;24.30;43.40;;;;;;4995679;28;20088;-60
2023/07/26 01:18:26;;;;;;;0.95;0.50;;;24.30;43.40;;;;;;4991803;28;20045;-61
2023/07/26 01:20:52;;;;;;;1.80;0.60;;;24.30;43.40;;;;;;4995776;28;20123;-61
2023/07/26 01:23:18;;;;;;;0.93;0.50;;;24.20;43.30;;;;;;4995925;28;20035;-61
2023/07/26 01:25:44;;;;;;;1.83;0.77;;;24.30;43.40;;;;;;4994779;28;20097;-61
2023/07/26 01:28:10;;;;;;;2.03;0.52;;;24.30;43.30;;;;;;4995059;28;20050;-61
2023/07/26 01:30:37;;;;;;;1.33;0.40;;;24.30;43.30;;;;;;4994490;28;20097;-60
2023/07/26 01:33:07;;;;;;;1.30;0.63;;;24.30;43.30;;;;;;4995145;28;20057;-60
2023/07/26 01:35:35;;;;;;;0.60;0.50;;;24.20;43.30;;;;;;4995463;28;20026;-62
2023/07/26 01:38:02;;;;;;;0.98;0.60;;;24.30;43.30;;;;;;4994374;28;20030;-60
2023/07/26 01:40:29;;;;;;;0.85;0.50;;;24.20;43.30;;;;;;4994778;28;20055;-61
2023/07/26 01:42:56;;;;;;;0.75;0.65;;;24.20;43.20;;;;;;4995083;28;20031;-62
2023/07/26 01:45:22;;;;;;;1.30;0.50;;;24.20;43.20;;;;;;4995383;28;20037;-59
2023/07/26 01:47:53;;;;;;;0.90;0.50;;;24.20;43.20;;;;;;4994126;28;20068;-59
2023/07/26 01:50:19;;;;;;;0.95;0.52;;;24.20;43.20;;;;;;4990078;28;20190;-62
2023/07/26 01:52:46;;;;;;;0.55;0.50;;;24.20;43.20;;;;;;4975915;28;20114;-60
2023/07/26 01:55:12;;;;;;;0.85;0.50;;;24.20;43.20;;;;;;4988893;28;20038;-60
2023/07/26 01:57:38;;;;;;;1.17;0.70;;;24.20;43.20;;;;;;4992362;28;20102;-59
2023/07/26 02:00:05;;;;;;;1.88;0.68;;;24.20;43.20;;;;;;4993156;28;20193;-62
2023/07/26 02:02:39;;;;;;;0.70;0.50;;;24.20;43.20;;;;;;4994490;28;20050;-60
2023/07/26 02:05:05;;;;;;;0.63;0.50;;;24.20;43.20;;;;;;4993221;28;20050;-59
2023/07/26 02:07:32;;;;;;;1.48;0.60;;;24.20;43.20;;;;;;4990663;28;20117;-61
2023/07/26 02:09:57;;;;;;;0.90;0.70;;;24.20;43.20;;;;;;4992887;28;20057;-60
2023/07/26 02:12:24;;;;;;;1.23;0.52;;;24.20;43.20;;;;;;4993272;28;20441;-60
2023/07/26 02:14:50;;;;;;;0.77;0.57;;;24.20;43.30;;;;;;4994709;28;20125;-61
2023/07/26 02:17:17;;;;;;;0.80;0.52;;;24.20;43.30;;;;;;4991558;28;20022;-62
2023/07/26 02:19:43;;;;;;;1.05;0.50;;;24.20;43.30;;;;;;4992058;28;20121;-61
2023/07/26 02:22:09;;;;;;;1.20;0.60;;;24.20;43.30;;;;;;4994503;28;20110;-61
2023/07/26 02:24:35;;;;;;;0.47;0.40;;;24.10;43.30;;;;;;4976957;28;20064;-60
2023/07/26 02:27:02;;;;;;;0.68;0.45;;;24.10;43.30;;;;;;4993815;28;20092;-62
2023/07/26 02:29:28;;;;;;;1.20;0.68;;;24.10;43.30;;;;;;4992849;28;20030;-60
2023/07/26 02:31:55;;;;;;;1.15;0.65;;;24.10;43.40;;;;;;4991982;28;20049;-61
2023/07/26 02:34:21;;;;;;;0.65;0.43;;;24.10;43.40;;;;;;4992989;28;20102;-61
2023/07/26 02:36:47;;;;;;;0.52;0.50;;;24.10;43.40;;;;;;4993602;28;20030;-61
2023/07/26 02:39:13;;;;;;;0.77;0.50;;;24.10;43.40;;;;;;5002163;28;20145;-61
2023/07/26 02:41:39;;;;;;;0.95;0.50;;;24.10;43.40;;;;;;4987441;28;20121;-61
2023/07/26 02:44:06;;;;;;;0.50;0.45;;;24.10;43.40;;;;;;4991551;28;20101;-61
2023/07/26 02:46:32;;;;;;;0.65;0.52;;;24.10;43.50;;;;;;4994279;28;20065;-61
2023/07/26 02:48:59;;;;;;;0.60;0.50;;;24.10;43.50;;;;;;4992596;28;20042;-60
2023/07/26 02:51:25;;;;;;;0.85;0.50;;;24.10;43.50;;;;;;4991883;28;20045;-60
2023/07/26 02:53:51;;;;;;;1.15;0.60;;;24.10;43.60;;;;;;4991075;28;20026;-62
2023/07/26 02:56:16;;;;;;;1.38;0.60;;;24.10;43.60;;;;;;4988164;28;20049;-61
2023/07/26 02:58:42;;;;;;;0.82;0.50;;;24.10;43.60;;;;;;4989053;28;20121;-61
2023/07/26 03:01:08;;;;;;;0.47;0.47;;;24.10;43.60;;;;;;4982958;28;20092;-60
2023/07/26 03:03:34;;;;;;;0.55;0.55;;;24.00;43.60;;;;;;4989748;28;20169;-60
2023/07/26 03:06:00;;;;;;;0.60;0.60;;;24.00;43.60;;;;;;4988875;28;20114;-60
2023/07/26 03:08:26;;;;;;;0.82;0.60;;;24.00;43.60;;;;;;4985788;28;20041;-60
2023/07/26 03:10:52;;;;;;;1.77;0.77;;;24.00;43.70;;;;;;4985726;28;20096;-60
2023/07/26 03:13:18;;;;;;;0.50;0.50;;;24.00;43.70;;;;;;4985992;28;20407;-60
2023/07/26 03:15:45;;;;;;;1.48;0.60;;;24.00;43.70;;;;;;4987763;28;20393;-59
2023/07/26 03:18:11;;;;;;;0.57;0.55;;;24.00;43.70;;;;;;4986516;28;20019;-59
2023/07/26 03:20:37;;;;;;;3.22;0.70;;;24.00;43.80;;;;;;4987444;28;20023;-59
2023/07/26 03:23:03;;;;;;;0.50;0.50;;;24.00;43.80;;;;;;4987182;28;20712;-60
2023/07/26 03:25:29;;;;;;;0.55;0.52;;;24.00;43.80;;;;;;4989251;28;20034;-62
2023/07/26 03:27:55;;;;;;;0.70;0.40;;;24.00;44.40;;;;;;4986671;28;20437;-59
2023/07/26 03:30:21;;;;;;;1.38;0.60;;;24.00;43.80;;;;;;4989226;28;20164;-62
2023/07/26 03:32:47;;;;;;;1.00;0.60;;;24.00;43.90;;;;;;4989237;28;20176;-62
2023/07/26 03:35:13;;;;;;;2.33;0.75;;;24.00;43.90;;;;;;4989403;28;20198;-60
2023/07/26 03:37:39;;;;;;;0.85;0.45;;;24.00;43.90;;;;;;4990293;28;20030;-61
2023/07/26 03:40:05;;;;;;;1.95;0.70;;;23.90;43.90;;;;;;4992874;28;20067;-61
2023/07/26 03:42:31;;;;;;;0.50;0.50;;;23.90;43.90;;;;;;4993219;28;20034;-62
2023/07/26 03:44:57;;;;;;;0.98;0.55;;;24.00;44.00;;;;;;4992829;28;20065;-62
2023/07/26 03:47:23;;;;;;;0.45;0.40;;;23.90;43.90;;;;;;4990738;28;20065;-63
2023/07/26 03:49:49;;;;;;;0.85;0.50;;;24.00;44.00;;;;;;4990960;28;20412;-61
2023/07/26 03:52:15;;;;;;;0.60;0.60;;;24.00;44.00;;;;;;4992393;28;20030;-60
2023/07/26 03:54:40;;;;;;;0.90;0.60;;;23.90;44.00;;;;;;4992326;28;20109;-60
2023/07/26 03:57:07;;;;;;;0.80;0.70;;;23.90;44.00;;;;;;4991030;28;20038;-62
2023/07/26 03:59:33;;;;;;;0.73;0.52;;;23.90;44.10;;;;;;4991576;28;20038;-61
2023/07/26 04:01:59;;;;;;;0.70;0.60;;;23.90;44.10;;;;;;4990987;28;20030;-61
2023/07/26 04:04:25;;;;;;;1.02;0.52;;;23.90;44.20;;;;;;4989529;28;20205;-63
2023/07/26 04:06:51;;;;;;;1.13;0.80;;;23.90;44.20;;;;;;4998267;28;20313;-61
2023/07/26 04:09:17;;;;;;;0.70;0.60;;;23.90;44.30;;;;;;4989204;28;20096;-62
2023/07/26 04:11:43;;;;;;;0.55;0.50;;;23.90;44.30;;;;;;4987625;28;20080;-62
2023/07/26 04:14:09;;;;;;;1.00;0.60;;;23.90;44.40;;;;;;4987395;28;20031;-61
2023/07/26 04:16:34;;;;;;;1.20;0.70;;;23.90;44.40;;;;;;4986801;28;20168;-62
2023/07/26 04:19:00;;;;;;;0.60;0.50;;;23.90;44.50;;;;;;4986852;28;20018;-60
2023/07/26 04:21:26;;;;;;;0.88;0.70;;;23.90;44.50;;;;;;4988267;28;20605;-60
2023/07/26 04:23:52;;;;;;;0.60;0.55;;;23.90;44.50;;;;;;4988591;28;20049;-60
2023/07/26 04:26:19;;;;;;;1.15;0.57;;;23.90;44.50;;;;;;4987811;28;20368;-60
2023/07/26 04:28:45;;;;;;;1.02;0.60;;;23.90;44.50;;;;;;4988623;28;20026;-62
2023/07/26 04:31:11;;;;;;;0.63;0.52;;;23.90;44.50;;;;;;4971110;28;20062;-61
2023/07/26 04:33:37;;;;;;;1.63;0.50;;;23.90;44.50;;;;;;4984982;28;20138;-61
2023/07/26 04:36:03;;;;;;;0.65;0.50;;;23.90;44.50;;;;;;4986628;28;20066;-60
2023/07/26 04:38:29;;;;;;;0.70;0.45;;;23.90;44.50;;;;;;4986301;28;20069;-62
2023/07/26 04:40:54;;;;;;;1.10;0.68;;;23.90;44.50;;;;;;4987429;28;20394;-61
2023/07/26 04:43:20;;;;;;;1.20;0.73;;;23.90;44.50;;;;;;4990389;28;20456;-60
2023/07/26 04:45:48;;;;;;;0.63;0.50;;;23.90;44.50;;;;;;4991873;28;20034;-62
2023/07/26 04:48:14;;;;;;;0.75;0.60;;;23.90;44.50;;;;;;4989233;28;20048;-61
2023/07/26 04:50:40;;;;;;;0.63;0.60;;;23.90;44.50;;;;;;4990346;28;21768;-63
2023/07/26 04:53:06;;;;;;;0.50;0.50;;;23.90;44.50;;;;;;5003960;28;20080;-61
2023/07/26 04:55:32;;;;;;;0.90;0.70;;;23.90;44.50;;;;;;4991363;28;20026;-61
2023/07/26 04:57:58;;;;;;;0.50;0.50;;;23.90;44.50;;;;;;4989094;28;20092;-62
2023/07/26 05:00:24;;;;;;;0.73;0.60;;;23.90;44.50;;;;;;4991497;28;20050;-60
2023/07/26 05:02:50;;;;;;;0.80;0.60;;;23.90;44.50;;;;;;4987269;28;20052;-61
2023/07/26 05:05:16;;;;;;;0.88;0.65;;;23.90;44.50;;;;;;4989770;28;20086;-60
2023/07/26 05:07:41;;;;;;;0.95;0.68;;;23.90;44.50;;;;;;4988952;28;20046;-60
2023/07/26 05:10:08;;;;;;;0.80;0.70;;;23.90;44.50;;;;;;4991598;28;20133;-58
2023/07/26 05:12:34;;;;;;;0.98;0.63;;;23.90;44.50;;;;;;4989472;28;20034;-59
2023/07/26 05:15:00;;;;;;;0.70;0.68;;;23.90;44.40;;;;;;4990372;28;20040;-60
2023/07/26 05:17:26;;;;;;;0.85;0.60;;;23.90;44.40;;;;;;4988938;28;20145;-60
2023/07/26 05:19:51;;;;;;;1.33;0.70;;;23.90;44.40;;;;;;4990606;28;20074;-61
2023/07/26 05:22:17;;;;;;;1.13;0.70;;;23.90;44.50;;;;;;4990569;28;20041;-61
2023/07/26 05:24:43;;;;;;;1.08;0.60;;;23.90;44.40;;;;;;5004176;28;20046;-61
2023/07/26 05:27:09;;;;;;;1.48;0.70;;;23.90;44.50;;;;;;4989125;28;20470;-61
2023/07/26 05:29:35;;;;;;;0.82;0.60;;;24.00;44.50;;;;;;4989924;28;20414;-61
2023/07/26 05:32:01;;;;;;;0.75;0.55;;;23.90;44.50;;;;;;4989958;28;20109;-62
2023/07/26 05:34:27;;;;;;;1.27;0.80;;;23.90;44.50;;;;;;4990480;28;20065;-61
2023/07/26 05:36:53;;;;;;;1.13;0.73;;;24.00;44.60;;;;;;4991275;28;20059;-60
2023/07/26 05:39:19;;;;;;;0.93;0.70;;;24.00;44.60;;;;;;4989760;28;20711;-62
2023/07/26 05:41:44;;;;;;;0.65;0.60;;;24.00;44.60;;;;;;4990100;28;20038;-61
2023/07/26 05:44:10;;;;;;;1.20;0.60;;;23.90;44.60;;;;;;4990315;28;20038;-60
2023/07/26 05:46:36;;;;;;;2.33;0.80;;;24.00;44.60;;;;;;4989696;28;20027;-61
2023/07/26 05:49:02;;;;;;;2.55;0.75;;;24.00;44.60;;;;;;4990830;28;20042;-62
2023/07/26 05:51:28;;;;;;;2.47;0.70;;;24.00;44.60;;;;;;4989956;28;20058;-64
2023/07/26 05:53:54;;;;;;;0.73;0.52;;;24.00;44.70;;;;;;4989816;28;20049;-60
2023/07/26 05:56:20;;;;;;;0.63;0.52;;;24.00;44.70;;;;;;4991124;28;20097;-61
2023/07/26 05:58:46;;;;;;;1.23;0.68;;;24.00;44.70;;;;;;4989795;28;20042;-61
2023/07/26 06:01:12;;;;;;;1.25;0.80;;;24.00;44.60;;;;;;4982624;28;20023;-60
2023/07/26 06:03:38;;;;;;;0.80;0.60;;;24.00;44.70;;;;;;4989805;28;20129;-60
2023/07/26 06:06:05;;;;;;;1.35;0.60;;;24.00;44.70;;;;;;4990143;28;20112;-59
2023/07/26 06:08:32;;;;;;;0.88;0.50;;;24.00;44.70;;;;;;4985630;28;20096;-61
2023/07/26 06:10:58;;;;;;;1.20;0.90;;;24.00;44.70;;;;;;4987208;28;20042;-61
2023/07/26 06:13:24;;;;;;;1.05;0.85;;;24.00;44.70;;;;;;4989232;28;20287;-59
2023/07/26 06:15:50;;;;;;;1.42;0.70;;;24.00;44.70;;;;;;4989338;28;20035;-62
2023/07/26 06:18:16;;;;;;;0.80;0.63;;;24.00;44.70;;;;;;5003416;28;20074;-62
2023/07/26 06:20:42;;;;;;;0.93;0.70;;;24.00;44.80;;;;;;4990425;28;20080;-60
2023/07/26 06:23:08;;;;;;;1.55;0.75;;;24.00;44.80;;;;;;4990102;28;20034;-61
2023/07/26 06:25:35;;;;;;;1.33;0.80;;;24.00;44.80;;;;;;4990350;28;20444;-61
2023/07/26 06:28:01;;;;;;;2.00;0.90;;;24.00;44.80;;;;;;4986927;28;20323;-62
2023/07/26 06:30:27;;;;;;;1.80;0.60;;;24.00;44.90;;;;;;4988655;28;20037;-63
2023/07/26 06:32:54;;;;;;;1.35;0.80;;;24.10;44.90;;;;;;4988641;28;20314;-61
2023/07/26 06:35:21;;;;;;;1.17;0.80;;;24.10;44.90;;;;;;4987909;28;20043;-64
2023/07/26 06:37:48;;;;;;;1.17;0.70;;;24.10;45.00;;;;;;4989438;28;20112;-64
2023/07/26 06:40:14;;;;;;;0.82;0.60;;;24.10;45.00;;;;;;4989490;28;20022;-61
2023/07/26 06:42:40;;;;;;;0.60;0.60;;;24.10;45.00;;;;;;4987301;28;20470;-62
2023/07/26 06:45:07;;;;;;;0.90;0.65;;;24.10;45.00;;;;;;4988852;28;20133;-61
2023/07/26 06:47:33;;;;;;;1.55;0.93;;;24.10;45.00;;;;;;4987020;28;20036;-62
2023/07/26 06:49:59;;;;;;;1.35;0.80;;;24.10;45.10;;;;;;4988800;28;20073;-61
2023/07/26 06:52:30;;;;;;;0.90;0.80;;;24.10;45.10;;;;;;5002251;28;20104;-60
2023/07/26 06:54:56;;;;;;;1.00;0.75;;;24.10;45.20;;;;;;4989003;28;20112;-61
2023/07/26 06:57:22;;;;;;;1.27;0.80;;;24.10;45.20;;;;;;4986929;28;20066;-61
2023/07/26 06:59:48;;;;;;;0.90;0.60;;;24.10;45.20;;;;;;4989147;28;20480;-61
2023/07/26 07:02:14;;;;;;;2.65;0.80;;;24.10;45.30;;;;;;4988437;28;20318;-61
2023/07/26 07:04:40;;;;;;;2.13;1.20;;;24.10;45.40;;;;;;4989034;28;20034;-58
2023/07/26 07:07:06;;;;;;;1.35;0.82;;;24.10;45.40;;;;;;4987094;28;20132;-61
2023/07/26 07:09:32;;;;;;;2.17;1.02;;;24.10;45.60;;;;;;4989760;28;20178;-61
2023/07/26 07:11:58;;;;;;;2.20;0.90;;;24.10;45.60;;;;;;4985980;28;20098;-61
2023/07/26 07:14:24;;;;;;;1.73;1.00;;;24.10;45.60;;;;;;4984329;28;20652;-60
2023/07/26 07:16:50;;;;;;;1.83;1.10;;;24.10;45.70;;;;;;4986921;28;20061;-61
2023/07/26 07:19:16;;;;;;;1.58;0.93;;;24.20;45.80;;;;;;4987281;28;20030;-61
2023/07/26 07:21:43;;;;;;;1.30;1.00;;;24.10;45.70;;;;;;4985443;28;20030;-62
2023/07/26 07:24:09;;;;;;;1.73;1.00;;;24.10;45.80;;;;;;4983113;28;20401;-62
2023/07/26 07:26:35;;;;;;;2.10;0.80;;;24.10;45.80;;;;;;4988776;28;20065;-61
2023/07/26 07:29:01;;;;;;;1.70;0.85;;;24.20;45.90;;;;;;4988110;28;20318;-60
2023/07/26 07:31:27;;;;;;;3.83;0.77;;;24.10;45.90;;;;;;4984315;28;20353;-61
2023/07/26 07:33:53;;;;;;;1.77;1.05;;;24.10;46.00;;;;;;4985469;28;20034;-61
2023/07/26 07:36:19;;;;;;;1.23;0.80;;;24.20;46.10;;;;;;4988659;28;20053;-62
2023/07/26 07:38:46;;;;;;;1.60;1.05;;;24.10;46.00;;;;;;4988329;28;20294;-60
2023/07/26 07:41:13;;;;;;;1.60;0.80;;;24.10;46.10;;;;;;4985346;28;20085;-61
2023/07/26 07:43:39;;;;;;;1.63;0.85;;;24.10;46.10;;;;;;4985412;28;20043;-62
2023/07/26 07:46:05;;;;;;;1.00;0.90;;;24.10;46.20;;;;;;4987288;28;20049;-58
2023/07/26 07:48:33;;;;;;;5.85;0.80;;;24.10;46.10;;;;;;4988869;28;20030;-61
2023/07/26 07:50:58;;;;;;;1.63;1.00;;;24.10;46.20;;;;;;4988353;28;20040;-64
2023/07/26 07:53:24;;;;;;;1.85;0.90;;;24.10;46.30;;;;;;4985935;28;20440;-61
2023/07/26 07:55:51;;;;;;;1.10;0.90;;;24.10;46.30;;;;;;4983807;28;20639;-61
2023/07/26 07:58:17;;;;;;;1.88;0.80;;;24.10;46.40;;;;;;4985778;28;20398;-61
2023/07/26 08:00:43;;;;;;;1.35;0.90;;;24.10;46.40;;;;;;4982193;28;20049;-67
2023/07/26 08:03:09;;;;;;;1.35;0.80;;;24.20;46.40;;;;;;4986073;28;20078;-62
2023/07/26 08:05:35;;;;;;;0.85;0.60;;;24.10;46.30;;;;;;4986554;28;20038;-61
2023/07/26 08:08:02;;;;;;;1.77;0.90;;;24.20;46.30;;;;;;4985646;28;20022;-61
2023/07/26 08:10:28;;;;;;;1.25;0.68;;;24.20;46.20;;;;;;4988277;28;20077;-63
2023/07/26 08:12:54;;;;;;;1.10;0.60;;;24.20;46.10;;;;;;4989175;28;20457;-61
2023/07/26 08:15:20;;;;;;;1.23;0.63;;;24.20;46.10;;;;;;4988326;28;20022;-64
2023/07/26 08:17:45;;;;;;;1.20;0.75;;;24.20;46.00;;;;;;4986842;28;20211;-63
2023/07/26 08:20:11;;;;;;;0.93;0.73;;;24.20;45.90;;;;;;4985196;28;20077;-63
2023/07/26 08:22:38;;;;;;;2.38;0.68;;;24.20;45.90;;;;;;4988463;28;20027;-63
2023/07/26 08:25:06;;;;;;;0.88;0.60;;;24.20;45.90;;;;;;4988509;28;20125;-63
2023/07/26 08:27:32;;;;;;;1.92;0.70;;;24.20;45.90;;;;;;4986880;28;20105;-63
2023/07/26 08:29:57;;;;;;;0.98;0.65;;;24.20;45.90;;;;;;4987211;28;20148;-63
2023/07/26 08:32:23;;;;;;;0.82;0.47;;;24.20;45.90;;;;;;4988344;28;20124;-62
2023/07/26 08:34:49;;;;;;;4.35;0.52;;;24.20;46.00;;;;;;4985703;28;20414;-64
2023/07/26 08:37:17;;;;;;;0.60;0.50;;;24.20;46.00;;;;;;4986503;28;20121;-63
2023/07/26 08:39:42;;;;;;;1.05;0.70;;;24.20;46.00;;;;;;4985543;28;20030;-64
2023/07/26 08:42:08;;;;;;;1.10;0.70;;;24.20;46.00;;;;;;4987479;28;20448;-63
2023/07/26 08:44:35;;;;;;;1.80;0.63;;;24.20;46.10;;;;;;4987578;28;20061;-66
2023/07/26 08:47:04;;;;;;;1.10;0.82;;;24.20;46.10;;;;;;4986146;28;20195;-64
2023/07/26 08:49:31;;;;;;;1.02;0.60;;;24.20;46.10;;;;;;4986928;28;20050;-64
2023/07/26 08:52:01;;;;;;;0.77;0.60;;;24.20;46.10;;;;;;4986470;28;20027;-64
2023/07/26 08:54:28;;;;;;;1.02;0.70;;;24.20;46.10;;;;;;4986642;28;20026;-66
2023/07/26 08:56:54;;;;;;;0.47;0.45;;;24.20;46.10;;;;;;4987098;28;20053;-63
2023/07/26 08:59:20;;;;;;;0.77;0.50;;;24.20;46.10;;;;;;4987669;28;20034;-63
2023/07/26 09:01:47;;;;;;;0.70;0.60;;;24.30;46.20;;;;;;4987107;28;20026;-64
2023/07/26 09:04:14;;;;;;;1.17;0.73;;;24.30;46.20;;;;;;4987183;28;20118;-62
2023/07/26 09:06:40;;;;;;;0.75;0.60;;;24.30;46.20;;;;;;4986147;28;20046;-64
2023/07/26 09:09:09;;;;;;;0.85;0.63;;;24.30;46.30;;;;;;4984918;28;21585;-64
2023/07/26 09:11:34;;;;;;;0.55;0.50;;;24.30;46.20;;;;;;4985839;28;20461;-65
2023/07/26 09:14:03;;;;;;;0.50;0.50;;;24.30;46.20;;;;;;4988780;28;20034;-63
2023/07/26 09:16:31;;;;;;;0.88;0.70;;;24.30;46.20;;;;;;4986157;28;20035;-62
2023/07/26 09:19:07;;;;;;;0.75;0.65;;;24.30;46.20;;;;;;4985165;28;20059;-63
2023/07/26 09:21:37;;;;;;;1.10;0.73;;;24.30;46.20;;;;;;4984366;28;20390;-64
2023/07/26 09:24:04;;;;;;;1.15;0.70;;;24.30;46.20;;;;;;4990065;28;20030;-63
2023/07/26 09:26:41;;;;;;;0.70;0.60;;;24.30;46.20;;;;;;4983778;28;20117;-64
2023/07/26 09:29:11;;;;;;;0.80;0.60;;;24.30;46.20;;;;;;4991190;28;20061;-65
2023/07/26 09:31:38;;;;;;;0.73;0.55;;;24.30;46.10;;;;;;4995330;28;20034;-65
2023/07/26 09:34:08;;;;;;;1.13;0.60;;;24.30;46.10;;;;;;4998295;28;20026;-64
2023/07/26 09:36:48;;;;;;;0.77;0.60;;;24.30;46.10;;;;;;4998903;28;20060;-64
2023/07/26 09:39:15;;;;;;;0.80;0.60;;;24.30;46.10;;;;;;4989974;28;20034;-63
2023/07/26 09:41:42;;;;;;;1.02;0.70;;;24.30;46.10;;;;;;4994595;28;20030;-64
2023/07/26 09:44:20;;;;;;;0.77;0.60;;;24.30;46.10;;;;;;4994113;28;20034;-65
2023/07/26 09:46:53;;;;;;;0.90;0.70;;;24.30;46.10;;;;;;5002720;28;20116;-64
2023/07/26 09:49:24;;;;;;;1.15;0.68;;;24.30;46.10;;;;;;4987661;28;20030;-64
2023/07/26 09:51:54;;;;;;;0.98;0.70;;;24.30;46.10;;;;;;4990028;28;20026;-63
2023/07/26 09:54:21;;;;;;;1.00;0.70;;;24.40;46.10;;;;;;4990203;28;20030;-61
2023/07/26 09:56:47;;;;;;;1.40;0.77;;;24.30;46.00;;;;;;4994491;28;20333;-62
2023/07/26 09:59:17;;;;;;;0.80;0.70;;;24.40;46.10;;;;;;5010651;28;20121;-65
2023/07/26 10:01:45;;;;;;;1.88;0.80;;;24.40;46.00;;;;;;5001718;28;20026;-66
2023/07/26 10:04:14;;;;;;;1.23;0.70;;;24.40;46.10;;;;;;4991838;28;20436;-61
2023/07/26 10:06:42;;;;;;;1.77;0.90;;;24.40;46.10;;;;;;4992315;28;20044;-63
2023/07/26 10:09:15;;;;;;;1.23;0.93;;;24.40;46.00;;;;;;4990187;28;20033;-62
2023/07/26 10:11:43;;;;;;;1.63;0.97;;;24.40;46.10;;;;;;4990968;28;20046;-63
2023/07/26 10:14:12;;;;;;;1.08;0.68;;;24.40;46.00;;;;;;4989258;28;20369;-63
2023/07/26 10:16:39;;;;;;;1.48;0.98;;;24.40;46.00;;;;;;4988500;28;20102;-63
2023/07/26 10:19:06;;;;;;;4.07;1.00;;;24.50;46.10;;;;;;4991389;28;20030;-62
2023/07/26 10:21:36;;;;;;;1.40;0.80;;;24.50;46.10;;;;;;4994167;28;20480;-64
2023/07/26 10:24:03;;;;;;;1.60;1.05;;;24.50;46.00;;;;;;4992785;28;20081;-63
2023/07/26 10:26:35;;;;;;;2.45;1.38;;;24.50;45.90;;;;;;4993168;28;20430;-62
2023/07/26 10:29:02;;;;;;;1.23;0.90;;;24.50;45.90;;;;;;4993483;28;20117;-62
2023/07/26 10:31:28;;;;;;;1.50;1.10;;;24.50;45.80;;;;;;4983329;28;20034;-65
2023/07/26 10:33:55;;;;;;;1.40;1.13;;;24.60;45.90;;;;;;4993422;28;20090;-62
2023/07/26 10:36:26;;;;;;;2.42;0.98;;;24.50;45.80;;;;;;4991925;28;20437;-63
2023/07/26 10:38:52;;;;;;;1.40;0.90;;;24.50;45.80;;;;;;4990772;28;20030;-60
2023/07/26 10:41:26;;;;;;;1.70;1.00;;;24.50;45.80;;;;;;4987822;28;20088;-62
2023/07/26 10:44:09;;;;;;;1.90;1.08;;;24.50;45.80;;;;;;4991698;28;20459;-60
2023/07/26 10:46:48;;;;;;;1.92;1.10;;;24.50;45.80;;;;;;4990679;28;20054;-61
2023/07/26 10:49:24;;;;;;;1.58;1.00;;;24.50;45.90;;;;;;4989231;28;20030;-61
2023/07/26 10:52:11;;;;;;;2.10;0.73;;;24.50;45.90;;;;;;4983800;28;20038;-61
2023/07/26 10:54:44;;;;;;;1.10;0.90;;;24.50;46.00;;;;;;4988740;28;20038;-59
2023/07/26 10:57:22;;;;;;;2.00;1.10;;;24.50;46.20;;;;;;4984397;28;20129;-64
2023/07/26 11:00:06;;;;;;;1.48;1.10;;;24.50;46.40;;;;;;4986739;28;20022;-63
2023/07/26 11:02:43;;;;;;;6.45;2.90;;;24.50;46.60;;;;;;4987303;28;20026;-60
2023/07/26 11:05:16;;;;;;;15.70;6.00;;;24.60;47.40;;;;;;4983572;28;20140;-62
2023/07/26 11:07:58;;;;;;;16.40;6.90;;;24.70;48.40;;;;;;4983708;28;20034;-63
2023/07/26 11:10:35;;;;;;;25.38;9.38;;;24.80;49.60;;;;;;4983314;28;20305;-61
2023/07/26 11:13:15;;;;;;;26.08;10.10;;;25.00;50.50;;;;;;4984348;28;20050;-60
2023/07/26 11:15:46;;;;;;;28.05;9.82;;;25.10;51.20;;;;;;4967116;28;20341;-63
2023/07/26 11:18:13;;;;;;;21.45;8.35;;;25.20;51.40;;;;;;4987184;28;20038;-64
2023/07/26 11:20:46;;;;;;;15.02;6.85;;;25.30;51.10;;;;;;4985925;28;20022;-66
2023/07/26 11:23:26;;;;;;;11.70;5.95;;;25.50;50.70;;;;;;4997710;28;20030;-65
2023/07/26 11:25:58;;;;;;;8.98;4.57;;;25.60;50.30;;;;;;4986763;28;20084;-65
2023/07/26 11:28:27;;;;;;;6.30;3.60;;;25.70;49.90;;;;;;4987320;28;20287;-63
2023/07/26 11:30:55;;;;;;;8.60;3.55;;;25.70;49.50;;;;;;4981299;28;20026;-66
2023/07/26 11:33:39;;;;;;;6.57;2.65;;;25.80;49.00;;;;;;4983190;28;20042;-65
2023/07/26 11:36:19;;;;;;;7.75;2.65;;;25.90;48.60;;;;;;4984777;28;20045;-63
2023/07/26 11:38:48;;;;;;;4.90;1.98;;;26.00;48.20;;;;;;4985798;28;20030;-64
2023/07/26 11:41:20;;;;;;;4.38;2.03;;;26.00;47.80;;;;;;4986396;28;20150;-64
2023/07/26 11:43:47;;;;;;;3.65;2.10;;;26.20;47.60;;;;;;4989205;28;20437;-64
2023/07/26 11:46:13;;;;;;;3.85;1.98;;;26.20;47.30;;;;;;4986423;28;20045;-67
2023/07/26 11:48:45;;;;;;;2.22;1.60;;;26.20;47.00;;;;;;4986348;28;20023;-63
2023/07/26 11:51:11;;;;;;;7.80;2.00;;;26.30;46.80;;;;;;4985796;28;20461;-65
2023/07/26 11:53:41;;;;;;;4.38;1.70;;;26.30;46.60;;;;;;4985961;28;20176;-64
2023/07/26 11:56:07;;;;;;;3.15;1.80;;;26.40;46.40;;;;;;4984921;28;20049;-63
2023/07/26 11:58:34;;;;;;;2.03;1.30;;;26.40;46.10;;;;;;4987036;28;20146;-64
2023/07/26 12:01:02;;;;;;;2.30;1.35;;;26.50;45.90;;;;;;4988100;28;20057;-65
2023/07/26 12:03:28;;;;;;;4.93;1.80;;;26.50;45.60;;;;;;4985666;28;20461;-64
2023/07/26 12:05:54;;;;;;;3.50;1.40;;;26.60;45.50;;;;;;4985277;28;20034;-63
2023/07/26 12:08:24;;;;;;;2.20;1.50;;;26.60;45.30;;;;;;4982664;28;20102;-64
2023/07/26 12:10:50;;;;;;;1.92;1.45;;;26.60;45.10;;;;;;4986863;28;20050;-63
2023/07/26 12:13:23;;;;;;;2.03;1.40;;;26.60;44.90;;;;;;4987753;28;20125;-61
2023/07/26 12:15:50;;;;;;;2.33;1.43;;;26.60;44.70;;;;;;4985174;28;20027;-62
2023/07/26 12:18:17;;;;;;;1.88;1.40;;;26.60;44.50;;;;;;4985249;28;20030;-62
2023/07/26 12:21:03;;;;;;;1.83;1.20;;;26.60;44.30;;;;;;4987334;28;20042;-62
2023/07/26 12:23:57;;;;;;;1.90;1.33;;;26.60;44.00;;;;;;4985696;28;20049;-61
2023/07/26 12:26:26;;;;;;;1.77;1.30;;;26.60;43.90;;;;;;4984851;28;20069;-61
2023/07/26 12:28:54;;;;;;;1.83;1.13;;;26.60;43.90;;;;;;4984045;28;20042;-61
2023/07/26 12:31:22;;;;;;;1.83;1.30;;;26.50;43.70;;;;;;4981159;28;20791;-64
2023/07/26 12:34:03;;;;;;;1.48;1.02;;;26.50;43.60;;;;;;4988795;28;20027;-60
2023/07/26 12:36:30;;;;;;;2.05;1.20;;;26.40;43.40;;;;;;4986306;28;20027;-60
2023/07/26 12:38:57;;;;;;;1.13;0.93;;;26.40;43.40;;;;;;4988483;28;20147;-61
2023/07/26 12:41:24;;;;;;;1.30;1.00;;;26.40;43.40;;;;;;4986275;28;20141;-62
2023/07/26 12:43:55;;;;;;;3.42;1.95;;;26.30;43.40;;;;;;4984692;28;20176;-63
2023/07/26 12:46:22;;;;;;;1.70;0.90;;;26.30;43.30;;;;;;4985975;28;20038;-61
2023/07/26 12:48:48;;;;;;;1.30;1.00;;;26.20;43.20;;;;;;4986138;28;20030;-62
2023/07/26 12:51:15;;;;;;;1.98;1.10;;;26.20;43.10;;;;;;4983649;28;20053;-64